createdAt,value
2022-10-11T00:02:17.009Z,96156.44
2022-10-11T00:07:20.179Z,96159.66
2022-10-11T00:12:23.321Z,96170.16
2022-10-11T00:17:26.462Z,96171.22
2022-10-11T00:22:39.596Z,96173.41
2022-10-11T00:27:42.802Z,96180.66
2022-10-11T00:32:45.960Z,96183.63
2022-10-11T00:37:49.371Z,96184.19
2022-10-11T00:42:53.033Z,96182.28
2022-10-11T00:47:56.309Z,96191.69
2022-10-11T00:52:59.579Z,96196.25
2022-10-11T00:58:02.892Z,96202.44
2022-10-11T01:03:06.168Z,96200.31
2022-10-11T01:08:09.413Z,96202.72
2022-10-11T01:13:12.711Z,96206.75
2022-10-11T01:18:16.227Z,96205.13
2022-10-11T01:23:19.588Z,96203.53
2022-10-11T01:28:22.910Z,96201.41
2022-10-11T01:33:26.124Z,96203.28
2022-10-11T01:38:29.312Z,96204.63
2022-10-11T01:43:33.149Z,96194.94
2022-10-11T01:48:37.954Z,96205.16
2022-10-11T01:53:41.494Z,96203.28
2022-10-11T01:58:44.726Z,96209.47
2022-10-11T02:03:48.050Z,96204.88
2022-10-11T02:08:51.309Z,96203.03
2022-10-11T02:13:54.654Z,96204.88
2022-10-11T02:18:57.885Z,96193.59
2022-10-11T02:24:01.167Z,96187.97
2022-10-11T02:29:04.699Z,96194.69
2022-10-11T02:34:07.857Z,96189.00
2022-10-11T02:39:11.169Z,96187.66
2022-10-11T02:44:14.449Z,96190.09
2022-10-11T02:49:17.581Z,96196.00
2022-10-11T02:54:20.768Z,96195.47
2022-10-11T02:59:23.925Z,96178.50
2022-10-11T03:04:27.146Z,96189.56
2022-10-11T03:09:30.333Z,96196.00
2022-10-11T03:14:33.605Z,96195.75
2022-10-11T03:19:36.844Z,96200.06
2022-10-11T03:24:40.161Z,96205.19
2022-10-11T03:29:43.346Z,96219.16
2022-10-11T03:34:46.474Z,96224.56
2022-10-11T03:39:49.785Z,96231.56
2022-10-11T03:44:52.994Z,96234.53
2022-10-11T03:49:56.170Z,96239.13
2022-10-11T03:54:59.352Z,96251.22
2022-10-11T04:00:02.573Z,96249.38
2022-10-11T04:05:06.510Z,96245.03
2022-10-11T04:10:09.703Z,96250.97
2022-10-11T04:15:13.640Z,96255.28
2022-10-11T04:20:18.004Z,96251.78
2022-10-11T04:25:21.177Z,96245.31
2022-10-11T04:30:24.321Z,96246.13
2022-10-11T04:35:27.736Z,96243.16
2022-10-11T04:40:30.996Z,96243.97
2022-10-11T04:45:34.301Z,96245.59
2022-10-11T04:50:37.450Z,96240.19
2022-10-11T04:55:40.618Z,96244.78
2022-10-11T05:00:48.460Z,96249.34
2022-10-11T05:05:51.638Z,96250.97
2022-10-11T05:10:55.002Z,96251.22
2022-10-11T05:15:58.245Z,96247.69
2022-10-11T05:21:01.416Z,96264.66
2022-10-11T05:26:04.822Z,96253.09
2022-10-11T05:31:08.286Z,96255.25
2022-10-11T05:36:17.856Z,96256.59
2022-10-11T05:41:21.097Z,96261.16
2022-10-11T05:46:24.357Z,96264.44
2022-10-11T05:51:32.247Z,96270.09
2022-10-11T05:56:35.538Z,96278.72
2022-10-11T06:01:38.918Z,96288.41
2022-10-11T06:06:42.258Z,96286.00
2022-10-11T06:11:45.669Z,96285.16
2022-10-11T06:16:49.128Z,96282.41
2022-10-11T06:21:56.557Z,96283.72
2022-10-11T06:27:00.442Z,96290.19
2022-10-11T06:32:03.607Z,96293.91
2022-10-11T06:37:06.909Z,96293.59
2022-10-11T06:42:13.924Z,96294.38
2022-10-11T06:47:17.110Z,96291.09
2022-10-11T06:52:20.284Z,96300.50
2022-10-11T06:57:23.495Z,96308.81
2022-10-11T07:02:27.014Z,96313.34
2022-10-11T07:07:30.202Z,96308.19
2022-10-11T07:12:33.358Z,96310.31
2022-10-11T07:17:36.567Z,96318.13
2022-10-11T07:22:39.832Z,96332.84
2022-10-11T07:27:43.106Z,96325.50
2022-10-11T07:32:46.276Z,96330.03
2022-10-11T07:37:49.558Z,96333.06
2022-10-11T07:42:52.899Z,96322.19
2022-10-11T07:47:56.258Z,96327.63
2022-10-11T07:52:59.611Z,96339.81
2022-10-11T07:58:02.914Z,96332.13
2022-10-11T08:03:06.223Z,96333.59
2022-10-11T08:08:10.328Z,96336.97
2022-10-11T08:13:14.391Z,96337.72
2022-10-11T08:18:17.607Z,96345.06
2022-10-11T08:23:26.194Z,96348.53
2022-10-11T08:28:29.509Z,96340.44
2022-10-11T08:33:32.956Z,96347.28
2022-10-11T08:38:36.627Z,96345.31
2022-10-11T08:43:39.810Z,96354.53
2022-10-11T08:48:42.979Z,96352.47
2022-10-11T08:53:46.187Z,96364.09
2022-10-11T08:58:49.459Z,96362.44
2022-10-11T09:03:54.406Z,96353.69
2022-10-11T09:08:57.679Z,96354.44
2022-10-11T09:14:00.851Z,96351.03
2022-10-11T09:19:04.051Z,96349.16
2022-10-11T09:24:07.273Z,96351.34
2022-10-11T09:29:10.547Z,96356.34
2022-10-11T09:34:13.857Z,96350.44
2022-10-11T09:39:17.048Z,96347.75
2022-10-11T09:44:20.550Z,96338.63
2022-10-11T09:49:23.878Z,96325.97
2022-10-11T09:54:28.186Z,96327.50
2022-10-11T09:59:31.524Z,96325.41
2022-10-11T10:04:34.834Z,96316.81
2022-10-11T10:09:38.153Z,96325.28
2022-10-11T10:14:41.506Z,96329.25
2022-10-11T10:19:45.363Z,96324.56
2022-10-11T10:24:48.745Z,96328.69
2022-10-11T10:29:52.016Z,96334.09
2022-10-11T10:34:55.301Z,96336.34
2022-10-11T10:39:58.509Z,96344.13
2022-10-11T10:45:01.766Z,96349.88
2022-10-11T10:50:05.061Z,96333.38
2022-10-11T10:55:08.334Z,96338.31
2022-10-11T11:00:11.545Z,96336.56
2022-10-11T11:05:16.489Z,96335.94
2022-10-11T11:10:19.761Z,96334.63
2022-10-11T11:15:29.203Z,96325.06
2022-10-11T11:20:35.489Z,96308.06
2022-10-11T11:25:43.885Z,96310.63
2022-10-11T11:30:47.953Z,96311.13
2022-10-11T11:35:52.674Z,96302.84
2022-10-11T11:40:55.869Z,96299.81
2022-10-11T11:45:59.032Z,96299.50
2022-10-11T11:51:02.617Z,96290.38
2022-10-11T11:56:07.391Z,96292.44
2022-10-11T12:01:11.071Z,96293.28
2022-10-11T12:06:14.286Z,96286.97
2022-10-11T12:11:17.780Z,96293.84
2022-10-11T12:16:20.948Z,96283.44
2022-10-11T12:21:26.913Z,96277.38
2022-10-11T12:26:30.528Z,96274.78
2022-10-11T12:31:33.854Z,96265.31
2022-10-11T12:36:37.147Z,96258.53
2022-10-11T12:41:40.509Z,96255.97
2022-10-11T12:46:43.790Z,96252.19
2022-10-11T12:51:47.080Z,96271.00
2022-10-11T12:56:50.385Z,96273.66
2022-10-11T13:01:53.555Z,96265.69
2022-10-11T13:06:56.899Z,96263.78
2022-10-11T13:12:00.291Z,96264.69
2022-10-11T13:17:03.704Z,96267.03
2022-10-11T13:22:06.972Z,96270.25
2022-10-11T13:27:10.151Z,96264.31
2022-10-11T13:32:13.318Z,96263.09
2022-10-11T13:37:16.668Z,96262.91
2022-10-11T13:42:19.901Z,96260.78
2022-10-11T13:47:23.234Z,96249.72
2022-10-11T13:52:26.413Z,96256.84
2022-10-11T13:57:29.729Z,96263.41
2022-10-11T14:02:33.288Z,96269.06
2022-10-11T14:07:36.457Z,96265.53
2022-10-11T14:12:40.561Z,96260.69
2022-10-11T14:17:44.586Z,96253.63
2022-10-11T14:22:47.847Z,96268.09
2022-10-11T14:27:51.096Z,96261.56
2022-10-11T14:32:54.487Z,96266.06
2022-10-11T14:37:57.756Z,96263.28
2022-10-11T14:43:01.063Z,96259.03
2022-10-11T14:48:04.916Z,96274.69
2022-10-11T14:53:08.289Z,96266.78
2022-10-11T14:58:11.749Z,96276.88
2022-10-11T15:03:14.966Z,96271.00
2022-10-11T15:08:18.193Z,96263.50
2022-10-11T15:13:22.656Z,96261.19
2022-10-11T15:18:26.058Z,96271.53
2022-10-11T15:23:29.650Z,96265.59
2022-10-11T15:28:33.149Z,96270.19
2022-10-11T15:33:36.478Z,96269.91
2022-10-11T15:38:40.100Z,96272.09
2022-10-11T15:43:43.278Z,96259.41
2022-10-11T15:48:52.720Z,96268.63
2022-10-11T15:53:56.024Z,96265.38
2022-10-11T15:58:59.691Z,96265.91
2022-10-11T16:04:03.076Z,96261.66
2022-10-11T16:09:06.781Z,96255.75
2022-10-11T16:14:10.089Z,96263.66
2022-10-11T16:19:15.519Z,96269.72
2022-10-11T16:24:28.897Z,96273.13
2022-10-11T16:29:32.108Z,96270.66
2022-10-11T16:34:37.483Z,96271.81
2022-10-11T16:39:48.508Z,96273.72
2022-10-11T16:44:52.965Z,96281.34
2022-10-11T16:49:56.355Z,96278.63
2022-10-11T16:55:01.037Z,96284.31
2022-10-11T17:00:04.255Z,96284.88
2022-10-11T17:05:07.770Z,96295.19
2022-10-11T17:10:11.081Z,96292.25
2022-10-11T17:15:26.171Z,96291.53
2022-10-11T17:20:29.412Z,96293.72
2022-10-11T17:25:32.642Z,96288.25
2022-10-11T17:30:36.044Z,96288.88
2022-10-11T17:35:40.328Z,96288.63
2022-10-11T17:40:43.814Z,96307.34
2022-10-11T17:45:47.125Z,96310.50
2022-10-11T17:50:50.847Z,96315.13
2022-10-11T17:55:54.389Z,96310.31
2022-10-11T18:00:57.876Z,96313.38
2022-10-11T18:06:03.714Z,96320.19
2022-10-11T18:11:07.293Z,96319.44
2022-10-11T18:16:11.623Z,96314.84
2022-10-11T18:21:15.256Z,96315.97
2022-10-11T18:26:18.554Z,96304.91
2022-10-11T18:31:21.775Z,96303.00
2022-10-11T18:36:25.222Z,96300.91
2022-10-11T18:41:30.823Z,96297.13
2022-10-11T18:46:34.196Z,96296.09
2022-10-11T18:51:37.405Z,96300.13
2022-10-11T18:56:40.776Z,96299.31
2022-10-11T19:01:44.185Z,96306.63
2022-10-11T19:06:48.336Z,96301.50
2022-10-11T19:11:51.815Z,96305.28
2022-10-11T19:16:55.087Z,96302.06
2022-10-11T19:21:59.230Z,96307.47
2022-10-11T19:27:05.803Z,96305.84
2022-10-11T19:32:17.013Z,96305.06
2022-10-11T19:37:20.719Z,96305.81
2022-10-11T19:42:25.285Z,96310.16
2022-10-11T19:47:29.793Z,96302.28
2022-10-11T19:52:33.737Z,96306.91
2022-10-11T19:57:37.624Z,96299.31
2022-10-11T20:02:51.411Z,96300.69
2022-10-11T20:07:54.979Z,96294.22
2022-10-11T20:12:58.249Z,96306.63
2022-10-11T20:18:01.820Z,96308.50
2022-10-11T20:23:05.169Z,96315.81
2022-10-11T20:28:08.617Z,96310.16
2022-10-11T20:33:13.011Z,96307.41
2022-10-11T20:38:16.309Z,96316.03
2022-10-11T20:43:19.615Z,96309.28
2022-10-11T20:48:23.061Z,96316.00
2022-10-11T20:53:26.357Z,96305.22
2022-10-11T20:58:33.310Z,96299.31
2022-10-11T21:03:42.373Z,96304.19
2022-10-11T21:08:46.706Z,96295.34
2022-10-11T21:13:49.970Z,96296.69
2022-10-11T21:18:53.627Z,96296.16
2022-10-11T21:23:56.872Z,96297.81
2022-10-11T21:29:00.298Z,96303.47
2022-10-11T21:34:05.141Z,96301.56
2022-10-11T21:39:10.663Z,96299.38
2022-10-11T21:44:13.783Z,96314.47
2022-10-11T21:49:17.002Z,96299.31
2022-10-11T21:54:20.152Z,96297.69
2022-10-11T21:59:23.730Z,96297.69
2022-10-11T22:04:26.898Z,96292.88
2022-10-11T22:09:34.960Z,96294.00
2022-10-11T22:14:38.143Z,96296.16
2022-10-11T22:19:41.357Z,96294.84
2022-10-11T22:24:44.537Z,96287.00
2022-10-11T22:29:47.733Z,96273.56
2022-10-11T22:34:51.083Z,96274.09
2022-10-11T22:39:54.262Z,96277.63
2022-10-11T22:44:57.423Z,96271.97
2022-10-11T22:50:00.568Z,96274.94
2022-10-11T22:55:04.261Z,96269.25
2022-10-11T23:00:08.065Z,96276.81
2022-10-11T23:05:20.650Z,96283.53
2022-10-11T23:10:24.273Z,96291.31
2022-10-11T23:15:27.457Z,96290.22
2022-10-11T23:20:30.675Z,96287.00
2022-10-11T23:25:37.505Z,96289.63
2022-10-11T23:30:45.593Z,96287.75
2022-10-11T23:35:48.783Z,96295.53
2022-10-11T23:40:51.969Z,96294.44
2022-10-11T23:45:55.914Z,96292.78
2022-10-11T23:50:59.074Z,96295.81
2022-10-11T23:56:02.257Z,96303.88
